sensor_id;sensor_type;location;lat;lon;timestamp;P1;durP1;ratioP1;P2;durP2;ratioP2
76848;SDS011;65814;51.134;16.980;2023-02-25T00:01:38;5.70;;;3.70;;
76848;SDS011;65814;51.134;16.980;2023-02-25T00:04:05;6.60;;;4.10;;
76848;SDS011;65814;51.134;16.980;2023-02-25T00:06:32;6.20;;;4.50;;
76848;SDS011;65814;51.134;16.980;2023-02-25T00:08:58;6.80;;;4.30;;
76848;SDS011;65814;51.134;16.980;2023-02-25T00:11:26;8.40;;;4.90;;
76848;SDS011;65814;51.134;16.980;2023-02-25T00:13:53;6.70;;;4.30;;
76848;SDS011;65814;51.134;16.980;2023-02-25T00:16:21;4.00;;;3.10;;
76848;SDS011;65814;51.134;16.980;2023-02-25T00:18:54;4.00;;;3.30;;
76848;SDS011;65814;51.134;16.980;2023-02-25T00:21:22;4.00;;;3.30;;
76848;SDS011;65814;51.134;16.980;2023-02-25T00:23:50;4.30;;;3.30;;
76848;SDS011;65814;51.134;16.980;2023-02-25T00:26:18;4.60;;;3.00;;
76848;SDS011;65814;51.134;16.980;2023-02-25T00:28:46;4.10;;;3.20;;
76848;SDS011;65814;51.134;16.980;2023-02-25T00:31:18;4.10;;;3.40;;
76848;SDS011;65814;51.134;16.980;2023-02-25T00:33:46;4.90;;;3.60;;
76848;SDS011;65814;51.134;16.980;2023-02-25T00:36:15;5.90;;;3.20;;
76848;SDS011;65814;51.134;16.980;2023-02-25T00:38:47;4.90;;;3.40;;
76848;SDS011;65814;51.134;16.980;2023-02-25T00:41:15;6.30;;;3.50;;
76848;SDS011;65814;51.134;16.980;2023-02-25T00:43:47;5.70;;;3.70;;
76848;SDS011;65814;51.134;16.980;2023-02-25T00:46:16;4.70;;;3.20;;
76848;SDS011;65814;51.134;16.980;2023-02-25T00:48:43;4.00;;;3.10;;
76848;SDS011;65814;51.134;16.980;2023-02-25T00:51:11;3.90;;;3.10;;
76848;SDS011;65814;51.134;16.980;2023-02-25T00:53:41;4.90;;;2.80;;
76848;SDS011;65814;51.134;16.980;2023-02-25T00:56:08;4.50;;;2.60;;
76848;SDS011;65814;51.134;16.980;2023-02-25T00:58:36;3.30;;;2.50;;
76848;SDS011;65814;51.134;16.980;2023-02-25T01:01:04;3.70;;;2.80;;
76848;SDS011;65814;51.134;16.980;2023-02-25T01:03:32;3.80;;;2.70;;
76848;SDS011;65814;51.134;16.980;2023-02-25T01:05:58;5.90;;;3.10;;
76848;SDS011;65814;51.134;16.980;2023-02-25T01:08:25;5.80;;;4.10;;
76848;SDS011;65814;51.134;16.980;2023-02-25T01:10:52;6.80;;;4.20;;
76848;SDS011;65814;51.134;16.980;2023-02-25T01:13:18;7.20;;;4.40;;
76848;SDS011;65814;51.134;16.980;2023-02-25T01:15:45;4.40;;;3.40;;
76848;SDS011;65814;51.134;16.980;2023-02-25T01:18:12;4.80;;;3.30;;
76848;SDS011;65814;51.134;16.980;2023-02-25T01:23:06;5.40;;;3.70;;
76848;SDS011;65814;51.134;16.980;2023-02-25T01:25:32;6.40;;;3.60;;
76848;SDS011;65814;51.134;16.980;2023-02-25T01:28:02;4.40;;;3.50;;
76848;SDS011;65814;51.134;16.980;2023-02-25T01:32:55;5.80;;;3.70;;
76848;SDS011;65814;51.134;16.980;2023-02-25T01:35:21;6.10;;;3.80;;
76848;SDS011;65814;51.134;16.980;2023-02-25T01:37:49;8.00;;;5.90;;
76848;SDS011;65814;51.134;16.980;2023-02-25T01:40:16;5.80;;;4.20;;
76848;SDS011;65814;51.134;16.980;2023-02-25T01:42:44;6.30;;;4.10;;
76848;SDS011;65814;51.134;16.980;2023-02-25T01:47:51;8.20;;;4.20;;
76848;SDS011;65814;51.134;16.980;2023-02-25T01:50:24;6.30;;;4.10;;
76848;SDS011;65814;51.134;16.980;2023-02-25T01:52:53;5.40;;;4.30;;
76848;SDS011;65814;51.134;16.980;2023-02-25T01:55:21;5.70;;;4.00;;
76848;SDS011;65814;51.134;16.980;2023-02-25T01:57:48;5.50;;;4.50;;
76848;SDS011;65814;51.134;16.980;2023-02-25T02:00:15;5.50;;;4.30;;
76848;SDS011;65814;51.134;16.980;2023-02-25T02:02:43;7.70;;;5.00;;
76848;SDS011;65814;51.134;16.980;2023-02-25T02:05:10;7.30;;;4.10;;
76848;SDS011;65814;51.134;16.980;2023-02-25T02:07:37;7.50;;;5.40;;
76848;SDS011;65814;51.134;16.980;2023-02-25T02:10:04;6.90;;;5.20;;
76848;SDS011;65814;51.134;16.980;2023-02-25T02:12:32;7.50;;;5.10;;
76848;SDS011;65814;51.134;16.980;2023-02-25T02:15:03;8.10;;;4.90;;
76848;SDS011;65814;51.134;16.980;2023-02-25T02:30:54;8.80;;;6.10;;
76848;SDS011;65814;51.134;16.980;2023-02-25T02:41:58;8.40;;;5.50;;
76848;SDS011;65814;51.134;16.980;2023-02-25T02:47:08;8.00;;;5.60;;
76848;SDS011;65814;51.134;16.980;2023-02-25T02:49:39;8.60;;;5.40;;
76848;SDS011;65814;51.134;16.980;2023-02-25T02:52:15;9.50;;;5.30;;
76848;SDS011;65814;51.134;16.980;2023-02-25T02:54:46;8.50;;;5.10;;
76848;SDS011;65814;51.134;16.980;2023-02-25T02:57:17;6.90;;;4.40;;
76848;SDS011;65814;51.134;16.980;2023-02-25T02:59:49;7.50;;;4.70;;
76848;SDS011;65814;51.134;16.980;2023-02-25T03:02:34;8.90;;;5.30;;
76848;SDS011;65814;51.134;16.980;2023-02-25T03:05:04;6.90;;;4.60;;
76848;SDS011;65814;51.134;16.980;2023-02-25T03:07:35;7.70;;;4.80;;
76848;SDS011;65814;51.134;16.980;2023-02-25T03:12:35;6.40;;;4.00;;
76848;SDS011;65814;51.134;16.980;2023-02-25T03:15:04;7.90;;;4.70;;
76848;SDS011;65814;51.134;16.980;2023-02-25T03:17:33;7.80;;;5.60;;
76848;SDS011;65814;51.134;16.980;2023-02-25T03:22:51;10.00;;;5.00;;
76848;SDS011;65814;51.134;16.980;2023-02-25T03:25:23;8.30;;;4.20;;
76848;SDS011;65814;51.134;16.980;2023-02-25T03:27:55;7.80;;;3.80;;
76848;SDS011;65814;51.134;16.980;2023-02-25T03:33:44;7.00;;;4.00;;
76848;SDS011;65814;51.134;16.980;2023-02-25T03:37:00;6.80;;;3.60;;
76848;SDS011;65814;51.134;16.980;2023-02-25T03:39:07;7.80;;;4.00;;
76848;SDS011;65814;51.134;16.980;2023-02-25T03:41:36;5.00;;;3.90;;
76848;SDS011;65814;51.134;16.980;2023-02-25T03:44:07;5.50;;;3.50;;
76848;SDS011;65814;51.134;16.980;2023-02-25T03:46:36;5.90;;;4.00;;
76848;SDS011;65814;51.134;16.980;2023-02-25T03:49:04;7.40;;;4.10;;
76848;SDS011;65814;51.134;16.980;2023-02-25T03:51:33;7.00;;;4.90;;
76848;SDS011;65814;51.134;16.980;2023-02-25T03:54:01;6.40;;;3.50;;
76848;SDS011;65814;51.134;16.980;2023-02-25T03:56:27;6.80;;;3.90;;
76848;SDS011;65814;51.134;16.980;2023-02-25T03:58:54;5.20;;;3.50;;
76848;SDS011;65814;51.134;16.980;2023-02-25T04:01:25;6.50;;;3.60;;
76848;SDS011;65814;51.134;16.980;2023-02-25T04:03:53;7.00;;;3.70;;
76848;SDS011;65814;51.134;16.980;2023-02-25T04:06:20;5.30;;;3.50;;
76848;SDS011;65814;51.134;16.980;2023-02-25T04:08:48;7.20;;;3.70;;
76848;SDS011;65814;51.134;16.980;2023-02-25T04:13:41;6.20;;;3.00;;
76848;SDS011;65814;51.134;16.980;2023-02-25T04:16:08;7.50;;;3.10;;
76848;SDS011;65814;51.134;16.980;2023-02-25T04:18:37;5.90;;;2.90;;
76848;SDS011;65814;51.134;16.980;2023-02-25T04:23:32;6.50;;;2.90;;
76848;SDS011;65814;51.134;16.980;2023-02-25T04:26:01;6.50;;;3.60;;
76848;SDS011;65814;51.134;16.980;2023-02-25T04:28:28;7.20;;;3.80;;
76848;SDS011;65814;51.134;16.980;2023-02-25T04:30:55;8.70;;;3.50;;
76848;SDS011;65814;51.134;16.980;2023-02-25T04:33:22;4.90;;;3.60;;
76848;SDS011;65814;51.134;16.980;2023-02-25T04:38:16;7.40;;;3.60;;
76848;SDS011;65814;51.134;16.980;2023-02-25T04:40:42;6.40;;;3.20;;
76848;SDS011;65814;51.134;16.980;2023-02-25T04:43:09;8.00;;;3.00;;
76848;SDS011;65814;51.134;16.980;2023-02-25T04:45:36;3.40;;;2.30;;
76848;SDS011;65814;51.134;16.980;2023-02-25T04:48:02;8.20;;;2.60;;
76848;SDS011;65814;51.134;16.980;2023-02-25T04:50:29;5.70;;;2.60;;
76848;SDS011;65814;51.134;16.980;2023-02-25T04:52:58;4.70;;;2.60;;
76848;SDS011;65814;51.134;16.980;2023-02-25T04:55:25;6.70;;;2.70;;
76848;SDS011;65814;51.134;16.980;2023-02-25T04:57:52;5.20;;;2.50;;
76848;SDS011;65814;51.134;16.980;2023-02-25T05:00:19;5.30;;;2.70;;
76848;SDS011;65814;51.134;16.980;2023-02-25T05:02:49;7.80;;;3.20;;
76848;SDS011;65814;51.134;16.980;2023-02-25T05:05:16;6.00;;;2.40;;
76848;SDS011;65814;51.134;16.980;2023-02-25T05:07:43;4.90;;;2.80;;
76848;SDS011;65814;51.134;16.980;2023-02-25T05:10:10;7.30;;;3.80;;
76848;SDS011;65814;51.134;16.980;2023-02-25T05:12:37;5.20;;;3.00;;
76848;SDS011;65814;51.134;16.980;2023-02-25T05:15:04;7.60;;;2.70;;
76848;SDS011;65814;51.134;16.980;2023-02-25T05:17:33;5.10;;;2.70;;
76848;SDS011;65814;51.134;16.980;2023-02-25T05:20:04;13.60;;;3.10;;
76848;SDS011;65814;51.134;16.980;2023-02-25T05:22:40;3.20;;;2.40;;
76848;SDS011;65814;51.134;16.980;2023-02-25T05:25:07;6.00;;;2.70;;
76848;SDS011;65814;51.134;16.980;2023-02-25T05:27:35;5.90;;;3.30;;
76848;SDS011;65814;51.134;16.980;2023-02-25T05:30:02;5.40;;;2.50;;
76848;SDS011;65814;51.134;16.980;2023-02-25T05:32:29;3.40;;;2.60;;
76848;SDS011;65814;51.134;16.980;2023-02-25T05:34:57;6.70;;;3.00;;
76848;SDS011;65814;51.134;16.980;2023-02-25T05:37:24;4.40;;;2.80;;
76848;SDS011;65814;51.134;16.980;2023-02-25T05:39:51;5.20;;;2.80;;
76848;SDS011;65814;51.134;16.980;2023-02-25T05:42:17;5.60;;;3.00;;
76848;SDS011;65814;51.134;16.980;2023-02-25T05:44:44;5.10;;;2.80;;
76848;SDS011;65814;51.134;16.980;2023-02-25T05:47:11;3.90;;;2.70;;
76848;SDS011;65814;51.134;16.980;2023-02-25T05:49:40;5.40;;;2.50;;
76848;SDS011;65814;51.134;16.980;2023-02-25T05:52:08;4.10;;;2.40;;
76848;SDS011;65814;51.134;16.980;2023-02-25T05:54:35;4.80;;;2.50;;
76848;SDS011;65814;51.134;16.980;2023-02-25T05:57:02;4.00;;;2.50;;
76848;SDS011;65814;51.134;16.980;2023-02-25T06:01:56;5.50;;;2.50;;
76848;SDS011;65814;51.134;16.980;2023-02-25T06:04:23;5.30;;;2.40;;
76848;SDS011;65814;51.134;16.980;2023-02-25T06:06:49;4.30;;;2.10;;
76848;SDS011;65814;51.134;16.980;2023-02-25T06:09:17;4.70;;;2.20;;
76848;SDS011;65814;51.134;16.980;2023-02-25T06:11:44;4.00;;;2.60;;
76848;SDS011;65814;51.134;16.980;2023-02-25T06:14:12;3.70;;;2.80;;
76848;SDS011;65814;51.134;16.980;2023-02-25T06:16:40;3.20;;;2.50;;
76848;SDS011;65814;51.134;16.980;2023-02-25T06:19:07;3.70;;;2.50;;
76848;SDS011;65814;51.134;16.980;2023-02-25T06:21:36;3.90;;;2.50;;
76848;SDS011;65814;51.134;16.980;2023-02-25T06:24:03;4.00;;;2.10;;
76848;SDS011;65814;51.134;16.980;2023-02-25T06:26:31;3.30;;;2.20;;
76848;SDS011;65814;51.134;16.980;2023-02-25T06:31:25;5.50;;;2.00;;
76848;SDS011;65814;51.134;16.980;2023-02-25T06:33:52;4.00;;;2.30;;
76848;SDS011;65814;51.134;16.980;2023-02-25T06:36:20;3.90;;;2.20;;
76848;SDS011;65814;51.134;16.980;2023-02-25T06:38:48;4.00;;;2.50;;
76848;SDS011;65814;51.134;16.980;2023-02-25T06:41:17;4.90;;;2.90;;
76848;SDS011;65814;51.134;16.980;2023-02-25T06:43:46;4.30;;;2.80;;
76848;SDS011;65814;51.134;16.980;2023-02-25T06:46:21;4.20;;;2.50;;
76848;SDS011;65814;51.134;16.980;2023-02-25T06:48:50;4.30;;;2.50;;
76848;SDS011;65814;51.134;16.980;2023-02-25T06:51:18;3.80;;;2.30;;
76848;SDS011;65814;51.134;16.980;2023-02-25T06:53:45;3.30;;;2.40;;
76848;SDS011;65814;51.134;16.980;2023-02-25T06:56:13;3.70;;;2.40;;
76848;SDS011;65814;51.134;16.980;2023-02-25T06:58:40;4.40;;;2.50;;
76848;SDS011;65814;51.134;16.980;2023-02-25T07:01:08;3.70;;;2.40;;
76848;SDS011;65814;51.134;16.980;2023-02-25T07:03:37;6.80;;;2.60;;
76848;SDS011;65814;51.134;16.980;2023-02-25T07:06:03;3.40;;;2.30;;
76848;SDS011;65814;51.134;16.980;2023-02-25T07:08:31;5.40;;;3.10;;
76848;SDS011;65814;51.134;16.980;2023-02-25T07:11:20;5.50;;;4.20;;
76848;SDS011;65814;51.134;16.980;2023-02-25T07:13:54;6.10;;;3.40;;
76848;SDS011;65814;51.134;16.980;2023-02-25T07:16:21;3.90;;;2.80;;
76848;SDS011;65814;51.134;16.980;2023-02-25T07:18:49;3.50;;;2.40;;
76848;SDS011;65814;51.134;16.980;2023-02-25T07:21:16;2.90;;;2.40;;
76848;SDS011;65814;51.134;16.980;2023-02-25T07:23:43;3.10;;;2.20;;
76848;SDS011;65814;51.134;16.980;2023-02-25T07:26:12;5.40;;;2.10;;
76848;SDS011;65814;51.134;16.980;2023-02-25T07:28:40;3.40;;;2.00;;
76848;SDS011;65814;51.134;16.980;2023-02-25T07:31:11;2.70;;;1.60;;
76848;SDS011;65814;51.134;16.980;2023-02-25T07:33:39;4.60;;;2.80;;
76848;SDS011;65814;51.134;16.980;2023-02-25T07:36:07;3.80;;;2.50;;
76848;SDS011;65814;51.134;16.980;2023-02-25T07:38:34;4.80;;;2.40;;
76848;SDS011;65814;51.134;16.980;2023-02-25T07:41:04;2.80;;;2.00;;
76848;SDS011;65814;51.134;16.980;2023-02-25T07:43:32;4.00;;;2.60;;
76848;SDS011;65814;51.134;16.980;2023-02-25T07:45:58;3.30;;;2.20;;
76848;SDS011;65814;51.134;16.980;2023-02-25T07:48:25;3.00;;;2.10;;
76848;SDS011;65814;51.134;16.980;2023-02-25T07:50:52;2.60;;;1.90;;
76848;SDS011;65814;51.134;16.980;2023-02-25T07:53:19;3.10;;;1.90;;
76848;SDS011;65814;51.134;16.980;2023-02-25T07:55:48;4.40;;;2.20;;
76848;SDS011;65814;51.134;16.980;2023-02-25T07:58:15;4.30;;;2.60;;
76848;SDS011;65814;51.134;16.980;2023-02-25T08:00:45;3.80;;;2.50;;
76848;SDS011;65814;51.134;16.980;2023-02-25T08:03:12;5.80;;;2.50;;
76848;SDS011;65814;51.134;16.980;2023-02-25T08:05:39;5.00;;;2.60;;
76848;SDS011;65814;51.134;16.980;2023-02-25T08:08:06;4.70;;;2.40;;
76848;SDS011;65814;51.134;16.980;2023-02-25T08:10:33;3.30;;;2.50;;
76848;SDS011;65814;51.134;16.980;2023-02-25T08:12:59;4.20;;;2.80;;
76848;SDS011;65814;51.134;16.980;2023-02-25T08:15:26;3.60;;;2.60;;
76848;SDS011;65814;51.134;16.980;2023-02-25T08:17:53;3.20;;;2.50;;
76848;SDS011;65814;51.134;16.980;2023-02-25T08:20:21;4.90;;;2.80;;
76848;SDS011;65814;51.134;16.980;2023-02-25T08:22:47;3.00;;;2.30;;
76848;SDS011;65814;51.134;16.980;2023-02-25T08:25:14;4.10;;;2.60;;
76848;SDS011;65814;51.134;16.980;2023-02-25T08:30:09;4.60;;;2.90;;
76848;SDS011;65814;51.134;16.980;2023-02-25T08:32:36;4.40;;;2.50;;
76848;SDS011;65814;51.134;16.980;2023-02-25T08:35:03;4.00;;;2.20;;
76848;SDS011;65814;51.134;16.980;2023-02-25T08:39:58;3.20;;;2.90;;
76848;SDS011;65814;51.134;16.980;2023-02-25T08:44:51;5.00;;;2.60;;
76848;SDS011;65814;51.134;16.980;2023-02-25T08:47:18;4.60;;;3.00;;
76848;SDS011;65814;51.134;16.980;2023-02-25T08:49:45;4.40;;;3.00;;
76848;SDS011;65814;51.134;16.980;2023-02-25T08:52:12;4.00;;;2.80;;
76848;SDS011;65814;51.134;16.980;2023-02-25T08:54:39;4.00;;;3.00;;
76848;SDS011;65814;51.134;16.980;2023-02-25T08:57:06;4.20;;;3.00;;
76848;SDS011;65814;51.134;16.980;2023-02-25T09:02:03;3.00;;;2.70;;
76848;SDS011;65814;51.134;16.980;2023-02-25T09:04:32;4.90;;;2.50;;
76848;SDS011;65814;51.134;16.980;2023-02-25T09:06:59;3.30;;;2.40;;
76848;SDS011;65814;51.134;16.980;2023-02-25T09:09:26;3.40;;;2.50;;
76848;SDS011;65814;51.134;16.980;2023-02-25T09:11:53;2.90;;;2.30;;
76848;SDS011;65814;51.134;16.980;2023-02-25T09:16:47;3.20;;;2.20;;
76848;SDS011;65814;51.134;16.980;2023-02-25T09:19:14;4.30;;;3.00;;
76848;SDS011;65814;51.134;16.980;2023-02-25T09:21:46;3.70;;;2.60;;
76848;SDS011;65814;51.134;16.980;2023-02-25T09:26:42;3.70;;;2.30;;
76848;SDS011;65814;51.134;16.980;2023-02-25T09:29:09;3.60;;;2.50;;
76848;SDS011;65814;51.134;16.980;2023-02-25T09:31:36;2.90;;;2.40;;
76848;SDS011;65814;51.134;16.980;2023-02-25T09:34:06;3.50;;;2.10;;
76848;SDS011;65814;51.134;16.980;2023-02-25T09:36:34;3.90;;;2.30;;
76848;SDS011;65814;51.134;16.980;2023-02-25T09:39:02;4.00;;;2.20;;
76848;SDS011;65814;51.134;16.980;2023-02-25T09:46:41;3.60;;;2.60;;
76848;SDS011;65814;51.134;16.980;2023-02-25T09:49:23;3.10;;;2.70;;
76848;SDS011;65814;51.134;16.980;2023-02-25T09:51:56;4.10;;;2.60;;
76848;SDS011;65814;51.134;16.980;2023-02-25T09:54:31;3.10;;;2.50;;
76848;SDS011;65814;51.134;16.980;2023-02-25T09:57:03;3.40;;;2.50;;
76848;SDS011;65814;51.134;16.980;2023-02-25T09:59:30;3.10;;;2.60;;
76848;SDS011;65814;51.134;16.980;2023-02-25T10:07:25;4.60;;;3.00;;
76848;SDS011;65814;51.134;16.980;2023-02-25T10:12:40;5.20;;;3.00;;
76848;SDS011;65814;51.134;16.980;2023-02-25T10:18:22;4.50;;;3.80;;
76848;SDS011;65814;51.134;16.980;2023-02-25T10:26:21;3.60;;;2.40;;
76848;SDS011;65814;51.134;16.980;2023-02-25T10:28:51;5.00;;;3.60;;
76848;SDS011;65814;51.134;16.980;2023-02-25T10:31:25;4.50;;;3.30;;
76848;SDS011;65814;51.134;16.980;2023-02-25T10:33:52;3.70;;;2.80;;
76848;SDS011;65814;51.134;16.980;2023-02-25T10:36:29;3.80;;;3.10;;
76848;SDS011;65814;51.134;16.980;2023-02-25T10:38:57;3.80;;;2.80;;
76848;SDS011;65814;51.134;16.980;2023-02-25T10:43:54;3.00;;;1.90;;
76848;SDS011;65814;51.134;16.980;2023-02-25T10:46:34;2.10;;;1.80;;
76848;SDS011;65814;51.134;16.980;2023-02-25T10:49:17;2.40;;;1.70;;
76848;SDS011;65814;51.134;16.980;2023-02-25T10:52:03;2.50;;;1.50;;
76848;SDS011;65814;51.134;16.980;2023-02-25T10:54:32;1.90;;;1.30;;
76848;SDS011;65814;51.134;16.980;2023-02-25T10:57:01;2.20;;;1.40;;
76848;SDS011;65814;51.134;16.980;2023-02-25T10:59:34;2.10;;;1.60;;
76848;SDS011;65814;51.134;16.980;2023-02-25T11:04:48;2.40;;;1.90;;
76848;SDS011;65814;51.134;16.980;2023-02-25T11:07:32;3.20;;;1.80;;
76848;SDS011;65814;51.134;16.980;2023-02-25T11:10:19;2.50;;;1.80;;
76848;SDS011;65814;51.134;16.980;2023-02-25T11:12:49;2.20;;;1.60;;
76848;SDS011;65814;51.134;16.980;2023-02-25T11:21:04;1.50;;;1.20;;
76848;SDS011;65814;51.134;16.980;2023-02-25T11:23:43;2.00;;;1.60;;
76848;SDS011;65814;51.134;16.980;2023-02-25T11:26:31;1.90;;;1.10;;
76848;SDS011;65814;51.134;16.980;2023-02-25T11:29:35;2.10;;;1.00;;
76848;SDS011;65814;51.134;16.980;2023-02-25T11:34:33;3.20;;;1.30;;
76848;SDS011;65814;51.134;16.980;2023-02-25T11:40:23;2.30;;;1.30;;
76848;SDS011;65814;51.134;16.980;2023-02-25T11:45:52;2.40;;;1.60;;
76848;SDS011;65814;51.134;16.980;2023-02-25T11:48:35;2.00;;;1.20;;
76848;SDS011;65814;51.134;16.980;2023-02-25T11:54:17;3.80;;;1.90;;
76848;SDS011;65814;51.134;16.980;2023-02-25T11:57:06;2.90;;;1.60;;
76848;SDS011;65814;51.134;16.980;2023-02-25T11:59:37;2.70;;;1.70;;
76848;SDS011;65814;51.134;16.980;2023-02-25T12:05:21;3.00;;;1.60;;
76848;SDS011;65814;51.134;16.980;2023-02-25T12:19:09;2.00;;;1.70;;
76848;SDS011;65814;51.134;16.980;2023-02-25T12:22:02;2.60;;;1.30;;
76848;SDS011;65814;51.134;16.980;2023-02-25T12:32:56;3.60;;;2.10;;
76848;SDS011;65814;51.134;16.980;2023-02-25T12:35:38;2.70;;;1.50;;
76848;SDS011;65814;51.134;16.980;2023-02-25T12:56:54;1.60;;;1.40;;
76848;SDS011;65814;51.134;16.980;2023-02-25T13:02:39;3.20;;;1.80;;
76848;SDS011;65814;51.134;16.980;2023-02-25T13:10:49;1.90;;;1.30;;
76848;SDS011;65814;51.134;16.980;2023-02-25T13:13:24;2.60;;;2.20;;
76848;SDS011;65814;51.134;16.980;2023-02-25T13:24:30;2.10;;;1.20;;
76848;SDS011;65814;51.134;16.980;2023-02-25T13:29:53;2.80;;;1.40;;
76848;SDS011;65814;51.134;16.980;2023-02-25T13:32:52;2.10;;;1.00;;
76848;SDS011;65814;51.134;16.980;2023-02-25T13:52:27;1.70;;;1.30;;
76848;SDS011;65814;51.134;16.980;2023-02-25T14:11:51;3.10;;;2.10;;
76848;SDS011;65814;51.134;16.980;2023-02-25T14:25:48;2.70;;;1.60;;
76848;SDS011;65814;51.134;16.980;2023-02-25T14:32:21;2.90;;;1.90;;
76848;SDS011;65814;51.134;16.980;2023-02-25T14:34:28;3.50;;;2.90;;
76848;SDS011;65814;51.134;16.980;2023-02-25T14:40:17;1.90;;;1.50;;
76848;SDS011;65814;51.134;16.980;2023-02-25T14:43:20;1.80;;;1.40;;
76848;SDS011;65814;51.134;16.980;2023-02-25T14:57:21;3.30;;;2.30;;
76848;SDS011;65814;51.134;16.980;2023-02-25T15:00:09;2.10;;;1.80;;
76848;SDS011;65814;51.134;16.980;2023-02-25T15:14:58;3.10;;;2.00;;
76848;SDS011;65814;51.134;16.980;2023-02-25T15:17:35;2.80;;;2.30;;
76848;SDS011;65814;51.134;16.980;2023-02-25T15:36:22;2.40;;;1.80;;
76848;SDS011;65814;51.134;16.980;2023-02-25T15:38:54;4.10;;;2.00;;
76848;SDS011;65814;51.134;16.980;2023-02-25T15:43:58;2.90;;;2.20;;
76848;SDS011;65814;51.134;16.980;2023-02-25T15:49:13;3.50;;;2.40;;
76848;SDS011;65814;51.134;16.980;2023-02-25T15:51:44;2.30;;;1.80;;
76848;SDS011;65814;51.134;16.980;2023-02-25T15:56:56;3.80;;;2.50;;
76848;SDS011;65814;51.134;16.980;2023-02-25T15:59:39;4.30;;;2.30;;
76848;SDS011;65814;51.134;16.980;2023-02-25T16:05:00;2.40;;;2.00;;
76848;SDS011;65814;51.134;16.980;2023-02-25T16:07:44;4.40;;;1.90;;
76848;SDS011;65814;51.134;16.980;2023-02-25T16:12:48;3.00;;;2.20;;
76848;SDS011;65814;51.134;16.980;2023-02-25T16:15:24;3.20;;;2.80;;
76848;SDS011;65814;51.134;16.980;2023-02-25T16:18:16;3.40;;;2.00;;
76848;SDS011;65814;51.134;16.980;2023-02-25T16:20:58;5.10;;;2.50;;
76848;SDS011;65814;51.134;16.980;2023-02-25T16:23:29;3.10;;;1.90;;
76848;SDS011;65814;51.134;16.980;2023-02-25T16:28:35;3.10;;;2.30;;
76848;SDS011;65814;51.134;16.980;2023-02-25T16:31:14;3.80;;;2.20;;
76848;SDS011;65814;51.134;16.980;2023-02-25T16:34:16;3.30;;;2.30;;
76848;SDS011;65814;51.134;16.980;2023-02-25T16:36:54;2.80;;;2.30;;
76848;SDS011;65814;51.134;16.980;2023-02-25T16:39:30;3.60;;;2.40;;
76848;SDS011;65814;51.134;16.980;2023-02-25T16:42:04;4.50;;;2.60;;
76848;SDS011;65814;51.134;16.980;2023-02-25T16:44:38;3.30;;;2.30;;
76848;SDS011;65814;51.134;16.980;2023-02-25T16:50:01;5.50;;;3.00;;
76848;SDS011;65814;51.134;16.980;2023-02-25T16:52:35;3.30;;;2.40;;
76848;SDS011;65814;51.134;16.980;2023-02-25T16:55:12;5.70;;;2.60;;
76848;SDS011;65814;51.134;16.980;2023-02-25T16:58:02;3.40;;;2.60;;
76848;SDS011;65814;51.134;16.980;2023-02-25T17:00:56;3.30;;;2.70;;
76848;SDS011;65814;51.134;16.980;2023-02-25T17:03:28;5.00;;;3.50;;
76848;SDS011;65814;51.134;16.980;2023-02-25T17:06:01;4.70;;;3.10;;
76848;SDS011;65814;51.134;16.980;2023-02-25T17:08:36;5.30;;;2.80;;
76848;SDS011;65814;51.134;16.980;2023-02-25T17:11:15;5.20;;;2.90;;
76848;SDS011;65814;51.134;16.980;2023-02-25T17:13:45;4.50;;;2.80;;
76848;SDS011;65814;51.134;16.980;2023-02-25T17:16:20;3.30;;;2.70;;
76848;SDS011;65814;51.134;16.980;2023-02-25T17:19:00;4.90;;;2.90;;
76848;SDS011;65814;51.134;16.980;2023-02-25T17:21:34;3.50;;;2.20;;
76848;SDS011;65814;51.134;16.980;2023-02-25T17:24:03;4.80;;;2.40;;
76848;SDS011;65814;51.134;16.980;2023-02-25T17:26:32;3.90;;;2.70;;
76848;SDS011;65814;51.134;16.980;2023-02-25T17:28:59;5.60;;;2.60;;
76848;SDS011;65814;51.134;16.980;2023-02-25T17:31:28;4.80;;;2.80;;
76848;SDS011;65814;51.134;16.980;2023-02-25T17:33:56;4.90;;;2.90;;
76848;SDS011;65814;51.134;16.980;2023-02-25T17:36:27;4.10;;;2.40;;
76848;SDS011;65814;51.134;16.980;2023-02-25T17:38:58;4.70;;;2.90;;
76848;SDS011;65814;51.134;16.980;2023-02-25T17:41:27;4.40;;;2.90;;
76848;SDS011;65814;51.134;16.980;2023-02-25T17:43:54;8.10;;;3.50;;
76848;SDS011;65814;51.134;16.980;2023-02-25T17:46:31;5.00;;;3.00;;
76848;SDS011;65814;51.134;16.980;2023-02-25T17:51:57;6.90;;;3.40;;
76848;SDS011;65814;51.134;16.980;2023-02-25T17:54:28;4.20;;;3.20;;
76848;SDS011;65814;51.134;16.980;2023-02-25T17:56:57;5.20;;;3.60;;
76848;SDS011;65814;51.134;16.980;2023-02-25T17:59:33;4.90;;;3.20;;
76848;SDS011;65814;51.134;16.980;2023-02-25T18:07:44;4.90;;;3.30;;
76848;SDS011;65814;51.134;16.980;2023-02-25T18:15:21;4.10;;;2.60;;
76848;SDS011;65814;51.134;16.980;2023-02-25T18:17:53;5.10;;;3.30;;
76848;SDS011;65814;51.134;16.980;2023-02-25T18:20:32;5.80;;;3.20;;
76848;SDS011;65814;51.134;16.980;2023-02-25T18:25:36;4.10;;;2.90;;
76848;SDS011;65814;51.134;16.980;2023-02-25T18:28:05;4.30;;;3.10;;
76848;SDS011;65814;51.134;16.980;2023-02-25T18:30:38;5.40;;;3.00;;
76848;SDS011;65814;51.134;16.980;2023-02-25T18:33:05;4.80;;;3.20;;
76848;SDS011;65814;51.134;16.980;2023-02-25T18:35:31;6.90;;;3.40;;
76848;SDS011;65814;51.134;16.980;2023-02-25T18:37:59;5.20;;;3.40;;
76848;SDS011;65814;51.134;16.980;2023-02-25T18:40:27;5.70;;;3.70;;
76848;SDS011;65814;51.134;16.980;2023-02-25T18:43:05;6.00;;;3.80;;
76848;SDS011;65814;51.134;16.980;2023-02-25T18:45:32;7.70;;;3.80;;
76848;SDS011;65814;51.134;16.980;2023-02-25T18:48:00;6.10;;;4.00;;
76848;SDS011;65814;51.134;16.980;2023-02-25T18:50:28;6.20;;;4.30;;
76848;SDS011;65814;51.134;16.980;2023-02-25T18:52:55;6.80;;;4.20;;
76848;SDS011;65814;51.134;16.980;2023-02-25T18:57:50;6.00;;;4.10;;
76848;SDS011;65814;51.134;16.980;2023-02-25T19:00:18;6.60;;;3.90;;
76848;SDS011;65814;51.134;16.980;2023-02-25T19:02:48;6.40;;;4.40;;
76848;SDS011;65814;51.134;16.980;2023-02-25T19:05:26;7.70;;;4.60;;
76848;SDS011;65814;51.134;16.980;2023-02-25T19:07:53;6.20;;;4.50;;
76848;SDS011;65814;51.134;16.980;2023-02-25T19:12:48;6.00;;;4.30;;
76848;SDS011;65814;51.134;16.980;2023-02-25T19:15:18;6.70;;;4.10;;
76848;SDS011;65814;51.134;16.980;2023-02-25T19:17:47;7.20;;;3.90;;
76848;SDS011;65814;51.134;16.980;2023-02-25T19:20:14;6.80;;;4.60;;
76848;SDS011;65814;51.134;16.980;2023-02-25T19:22:43;7.50;;;4.40;;
76848;SDS011;65814;51.134;16.980;2023-02-25T19:25:21;7.10;;;3.90;;
76848;SDS011;65814;51.134;16.980;2023-02-25T19:27:51;6.30;;;4.40;;
76848;SDS011;65814;51.134;16.980;2023-02-25T19:30:23;6.30;;;4.40;;
76848;SDS011;65814;51.134;16.980;2023-02-25T19:32:57;6.60;;;4.10;;
76848;SDS011;65814;51.134;16.980;2023-02-25T19:37:59;6.10;;;3.80;;
76848;SDS011;65814;51.134;16.980;2023-02-25T19:40:27;5.60;;;4.00;;
76848;SDS011;65814;51.134;16.980;2023-02-25T19:42:54;7.10;;;5.30;;
76848;SDS011;65814;51.134;16.980;2023-02-25T19:45:22;9.20;;;4.90;;
76848;SDS011;65814;51.134;16.980;2023-02-25T19:47:51;7.40;;;4.30;;
76848;SDS011;65814;51.134;16.980;2023-02-25T19:50:19;7.30;;;5.10;;
76848;SDS011;65814;51.134;16.980;2023-02-25T19:52:46;7.20;;;4.10;;
76848;SDS011;65814;51.134;16.980;2023-02-25T19:55:13;6.80;;;3.90;;
76848;SDS011;65814;51.134;16.980;2023-02-25T19:57:40;6.80;;;3.90;;
76848;SDS011;65814;51.134;16.980;2023-02-25T20:00:09;5.80;;;3.90;;
76848;SDS011;65814;51.134;16.980;2023-02-25T20:02:39;5.50;;;3.40;;